sensor_id;sensor_type;location;lat;lon;timestamp;P1;durP1;ratioP1;P2;durP2;ratioP2
13222;SDS011;6676;45.192;5.722;2022-10-03T00:04:44;2.72;;;1.12;;
13222;SDS011;6676;45.192;5.722;2022-10-03T00:07:54;1.50;;;0.88;;
13222;SDS011;6676;45.192;5.722;2022-10-03T00:10:52;5.15;;;0.75;;
13222;SDS011;6676;45.192;5.722;2022-10-03T00:13:37;1.50;;;1.00;;
13222;SDS011;6676;45.192;5.722;2022-10-03T00:16:34;0.78;;;0.70;;
13222;SDS011;6676;45.192;5.722;2022-10-03T00:19:30;2.75;;;0.65;;
13222;SDS011;6676;45.192;5.722;2022-10-03T00:22:30;1.35;;;0.85;;
13222;SDS011;6676;45.192;5.722;2022-10-03T00:25:25;1.65;;;0.80;;
13222;SDS011;6676;45.192;5.722;2022-10-03T00:28:22;2.17;;;0.78;;
13222;SDS011;6676;45.192;5.722;2022-10-03T00:31:18;3.50;;;0.80;;
13222;SDS011;6676;45.192;5.722;2022-10-03T00:34:14;3.08;;;0.82;;
13222;SDS011;6676;45.192;5.722;2022-10-03T00:37:21;1.22;;;0.62;;
13222;SDS011;6676;45.192;5.722;2022-10-03T00:43:54;2.98;;;0.72;;
13222;SDS011;6676;45.192;5.722;2022-10-03T00:50:30;2.70;;;0.80;;
13222;SDS011;6676;45.192;5.722;2022-10-03T00:53:37;1.17;;;0.55;;
13222;SDS011;6676;45.192;5.722;2022-10-03T00:56:52;1.25;;;0.70;;
13222;SDS011;6676;45.192;5.722;2022-10-03T01:00:00;2.90;;;0.70;;
13222;SDS011;6676;45.192;5.722;2022-10-03T01:03:22;1.57;;;0.50;;
13222;SDS011;6676;45.192;5.722;2022-10-03T01:06:15;1.00;;;0.70;;
13222;SDS011;6676;45.192;5.722;2022-10-03T01:09:14;1.45;;;0.72;;
13222;SDS011;6676;45.192;5.722;2022-10-03T01:14:58;6.00;;;0.90;;
13222;SDS011;6676;45.192;5.722;2022-10-03T01:20:39;1.75;;;0.72;;
13222;SDS011;6676;45.192;5.722;2022-10-03T01:26:53;1.62;;;0.90;;
13222;SDS011;6676;45.192;5.722;2022-10-03T01:29:49;0.98;;;0.53;;
13222;SDS011;6676;45.192;5.722;2022-10-03T01:33:02;3.58;;;0.70;;
13222;SDS011;6676;45.192;5.722;2022-10-03T01:35:48;3.85;;;0.90;;
13222;SDS011;6676;45.192;5.722;2022-10-03T01:38:44;0.70;;;0.57;;
13222;SDS011;6676;45.192;5.722;2022-10-03T01:41:40;2.10;;;0.80;;
13222;SDS011;6676;45.192;5.722;2022-10-03T01:44:37;3.45;;;0.62;;
13222;SDS011;6676;45.192;5.722;2022-10-03T01:50:18;2.17;;;0.93;;
13222;SDS011;6676;45.192;5.722;2022-10-03T01:53:14;2.20;;;0.62;;
13222;SDS011;6676;45.192;5.722;2022-10-03T01:56:11;0.68;;;0.50;;
13222;SDS011;6676;45.192;5.722;2022-10-03T01:59:06;3.87;;;0.88;;
13222;SDS011;6676;45.192;5.722;2022-10-03T02:02:00;2.33;;;0.80;;
13222;SDS011;6676;45.192;5.722;2022-10-03T02:04:44;0.90;;;0.60;;
13222;SDS011;6676;45.192;5.722;2022-10-03T02:10:23;1.37;;;0.70;;
13222;SDS011;6676;45.192;5.722;2022-10-03T02:13:19;2.00;;;0.68;;
13222;SDS011;6676;45.192;5.722;2022-10-03T02:16:15;1.27;;;0.60;;
13222;SDS011;6676;45.192;5.722;2022-10-03T02:21:55;1.98;;;0.80;;
13222;SDS011;6676;45.192;5.722;2022-10-03T02:24:50;1.75;;;0.78;;
13222;SDS011;6676;45.192;5.722;2022-10-03T02:38:26;3.65;;;0.90;;
13222;SDS011;6676;45.192;5.722;2022-10-03T02:41:50;2.02;;;0.68;;
13222;SDS011;6676;45.192;5.722;2022-10-03T02:47:54;1.67;;;0.90;;
13222;SDS011;6676;45.192;5.722;2022-10-03T03:01:38;3.33;;;0.90;;
13222;SDS011;6676;45.192;5.722;2022-10-03T03:04:47;1.60;;;0.60;;
13222;SDS011;6676;45.192;5.722;2022-10-03T03:08:07;0.70;;;0.70;;
13222;SDS011;6676;45.192;5.722;2022-10-03T03:11:28;5.08;;;0.70;;
13222;SDS011;6676;45.192;5.722;2022-10-03T03:17:48;1.60;;;0.62;;
13222;SDS011;6676;45.192;5.722;2022-10-03T03:20:55;1.57;;;0.60;;
13222;SDS011;6676;45.192;5.722;2022-10-03T03:24:01;1.10;;;0.80;;
13222;SDS011;6676;45.192;5.722;2022-10-03T03:30:00;1.05;;;0.60;;
13222;SDS011;6676;45.192;5.722;2022-10-03T03:32:57;1.20;;;0.80;;
13222;SDS011;6676;45.192;5.722;2022-10-03T03:35:55;3.62;;;0.70;;
13222;SDS011;6676;45.192;5.722;2022-10-03T03:38:52;1.92;;;0.55;;
13222;SDS011;6676;45.192;5.722;2022-10-03T03:41:48;1.25;;;0.60;;
13222;SDS011;6676;45.192;5.722;2022-10-03T04:01:08;1.50;;;0.78;;
13222;SDS011;6676;45.192;5.722;2022-10-03T04:04:10;3.15;;;0.70;;
13222;SDS011;6676;45.192;5.722;2022-10-03T04:07:10;1.47;;;0.60;;
13222;SDS011;6676;45.192;5.722;2022-10-03T04:10:01;1.10;;;0.70;;
13222;SDS011;6676;45.192;5.722;2022-10-03T04:13:13;1.00;;;0.90;;
13222;SDS011;6676;45.192;5.722;2022-10-03T04:16:23;1.57;;;0.70;;
13222;SDS011;6676;45.192;5.722;2022-10-03T04:19:18;3.20;;;0.62;;
13222;SDS011;6676;45.192;5.722;2022-10-03T04:28:29;2.15;;;0.78;;
13222;SDS011;6676;45.192;5.722;2022-10-03T04:31:29;1.20;;;0.60;;
13222;SDS011;6676;45.192;5.722;2022-10-03T04:34:31;3.60;;;1.05;;
13222;SDS011;6676;45.192;5.722;2022-10-03T04:37:32;2.17;;;0.75;;
13222;SDS011;6676;45.192;5.722;2022-10-03T04:40:32;1.40;;;0.90;;
13222;SDS011;6676;45.192;5.722;2022-10-03T04:46:15;1.32;;;0.70;;
13222;SDS011;6676;45.192;5.722;2022-10-03T04:51:53;7.70;;;1.20;;
13222;SDS011;6676;45.192;5.722;2022-10-03T04:54:51;3.15;;;1.60;;
13222;SDS011;6676;45.192;5.722;2022-10-03T04:57:46;1.72;;;1.10;;
13222;SDS011;6676;45.192;5.722;2022-10-03T05:00:29;2.87;;;0.80;;
13222;SDS011;6676;45.192;5.722;2022-10-03T05:03:17;2.87;;;0.72;;
13222;SDS011;6676;45.192;5.722;2022-10-03T05:06:21;2.15;;;1.00;;
13222;SDS011;6676;45.192;5.722;2022-10-03T05:09:26;1.50;;;0.80;;
13222;SDS011;6676;45.192;5.722;2022-10-03T05:12:24;1.67;;;0.78;;
13222;SDS011;6676;45.192;5.722;2022-10-03T05:15:19;2.87;;;0.80;;
13222;SDS011;6676;45.192;5.722;2022-10-03T05:18:13;4.90;;;0.70;;
13222;SDS011;6676;45.192;5.722;2022-10-03T05:20:55;2.17;;;0.80;;
13222;SDS011;6676;45.192;5.722;2022-10-03T05:23:54;4.12;;;0.90;;
13222;SDS011;6676;45.192;5.722;2022-10-03T05:26:50;3.77;;;0.90;;
13222;SDS011;6676;45.192;5.722;2022-10-03T05:29:50;1.65;;;0.80;;
13222;SDS011;6676;45.192;5.722;2022-10-03T05:32:48;1.40;;;0.82;;
13222;SDS011;6676;45.192;5.722;2022-10-03T05:35:44;1.87;;;0.78;;
13222;SDS011;6676;45.192;5.722;2022-10-03T05:38:46;4.00;;;1.15;;
13222;SDS011;6676;45.192;5.722;2022-10-03T05:42:01;2.15;;;1.00;;
13222;SDS011;6676;45.192;5.722;2022-10-03T05:45:20;2.37;;;0.78;;
13222;SDS011;6676;45.192;5.722;2022-10-03T05:51:06;2.00;;;0.90;;
13222;SDS011;6676;45.192;5.722;2022-10-03T06:01:17;1.80;;;0.85;;
13222;SDS011;6676;45.192;5.722;2022-10-03T06:04:28;5.65;;;2.08;;
13222;SDS011;6676;45.192;5.722;2022-10-03T06:10:28;2.65;;;1.00;;
13222;SDS011;6676;45.192;5.722;2022-10-03T06:13:29;1.35;;;0.75;;
13222;SDS011;6676;45.192;5.722;2022-10-03T06:16:20;3.58;;;1.10;;
13222;SDS011;6676;45.192;5.722;2022-10-03T06:19:23;2.37;;;0.95;;
13222;SDS011;6676;45.192;5.722;2022-10-03T06:23:25;1.57;;;0.88;;
13222;SDS011;6676;45.192;5.722;2022-10-03T06:46:51;2.42;;;1.07;;
13222;SDS011;6676;45.192;5.722;2022-10-03T06:50:28;4.42;;;1.12;;
13222;SDS011;6676;45.192;5.722;2022-10-03T06:56:48;3.10;;;1.17;;
13222;SDS011;6676;45.192;5.722;2022-10-03T07:00:10;2.98;;;0.78;;
13222;SDS011;6676;45.192;5.722;2022-10-03T07:03:25;1.42;;;0.82;;
13222;SDS011;6676;45.192;5.722;2022-10-03T07:06:36;3.02;;;0.88;;
13222;SDS011;6676;45.192;5.722;2022-10-03T07:19:16;2.02;;;0.90;;
13222;SDS011;6676;45.192;5.722;2022-10-03T07:22:22;1.70;;;0.80;;
13222;SDS011;6676;45.192;5.722;2022-10-03T07:25:36;3.62;;;0.70;;
13222;SDS011;6676;45.192;5.722;2022-10-03T07:28:58;2.80;;;1.00;;
13222;SDS011;6676;45.192;5.722;2022-10-03T07:32:18;1.90;;;0.88;;
13222;SDS011;6676;45.192;5.722;2022-10-03T07:35:27;3.50;;;0.68;;
13222;SDS011;6676;45.192;5.722;2022-10-03T07:38:57;1.27;;;0.80;;
13222;SDS011;6676;45.192;5.722;2022-10-03T07:51:13;4.12;;;1.42;;
13222;SDS011;6676;45.192;5.722;2022-10-03T07:54:28;2.67;;;1.10;;
13222;SDS011;6676;45.192;5.722;2022-10-03T07:58:00;1.95;;;0.90;;
13222;SDS011;6676;45.192;5.722;2022-10-03T08:01:17;2.83;;;1.20;;
13222;SDS011;6676;45.192;5.722;2022-10-03T08:04:21;4.37;;;1.80;;
13222;SDS011;6676;45.192;5.722;2022-10-03T08:07:22;2.15;;;1.50;;
13222;SDS011;6676;45.192;5.722;2022-10-03T08:10:19;4.62;;;1.70;;
13222;SDS011;6676;45.192;5.722;2022-10-03T08:13:20;5.42;;;2.15;;
13222;SDS011;6676;45.192;5.722;2022-10-03T08:16:22;6.62;;;2.22;;
13222;SDS011;6676;45.192;5.722;2022-10-03T08:19:18;3.72;;;2.58;;
13222;SDS011;6676;45.192;5.722;2022-10-03T08:22:38;4.90;;;2.62;;
13222;SDS011;6676;45.192;5.722;2022-10-03T08:25:37;3.77;;;2.00;;
13222;SDS011;6676;45.192;5.722;2022-10-03T08:34:57;1.77;;;1.05;;
13222;SDS011;6676;45.192;5.722;2022-10-03T08:41:35;6.78;;;1.30;;
13222;SDS011;6676;45.192;5.722;2022-10-03T08:55:15;5.47;;;1.10;;
13222;SDS011;6676;45.192;5.722;2022-10-03T09:02:07;1.52;;;1.37;;
13222;SDS011;6676;45.192;5.722;2022-10-03T09:24:26;1.75;;;1.22;;
13222;SDS011;6676;45.192;5.722;2022-10-03T09:27:47;2.45;;;1.30;;
13222;SDS011;6676;45.192;5.722;2022-10-03T09:31:06;1.20;;;1.05;;
13222;SDS011;6676;45.192;5.722;2022-10-03T09:34:13;1.32;;;1.22;;
13222;SDS011;6676;45.192;5.722;2022-10-03T09:37:36;1.72;;;1.10;;
13222;SDS011;6676;45.192;5.722;2022-10-03T09:40:55;2.67;;;1.40;;
13222;SDS011;6676;45.192;5.722;2022-10-03T09:51:10;1.98;;;1.30;;
13222;SDS011;6676;45.192;5.722;2022-10-03T09:54:20;2.62;;;1.52;;
13222;SDS011;6676;45.192;5.722;2022-10-03T09:57:44;1.92;;;1.52;;
13222;SDS011;6676;45.192;5.722;2022-10-03T10:01:04;2.95;;;1.42;;
13222;SDS011;6676;45.192;5.722;2022-10-03T10:04:16;1.75;;;1.30;;
13222;SDS011;6676;45.192;5.722;2022-10-03T10:07:45;1.32;;;1.20;;
13222;SDS011;6676;45.192;5.722;2022-10-03T10:17:33;2.70;;;1.70;;
13222;SDS011;6676;45.192;5.722;2022-10-03T10:20:49;1.25;;;1.10;;
13222;SDS011;6676;45.192;5.722;2022-10-03T10:24:02;2.12;;;1.60;;
13222;SDS011;6676;45.192;5.722;2022-10-03T10:27:18;3.10;;;1.42;;
13222;SDS011;6676;45.192;5.722;2022-10-03T10:30:21;3.33;;;1.50;;
13222;SDS011;6676;45.192;5.722;2022-10-03T10:36:49;3.17;;;1.62;;
13222;SDS011;6676;45.192;5.722;2022-10-03T10:39:56;3.08;;;1.57;;
13222;SDS011;6676;45.192;5.722;2022-10-03T10:43:05;2.77;;;1.35;;
13222;SDS011;6676;45.192;5.722;2022-10-03T10:46:22;1.60;;;1.07;;
13222;SDS011;6676;45.192;5.722;2022-10-03T10:49:38;3.95;;;1.50;;
13222;SDS011;6676;45.192;5.722;2022-10-03T11:10:28;1.90;;;1.10;;
13222;SDS011;6676;45.192;5.722;2022-10-03T11:13:34;1.07;;;0.90;;
13222;SDS011;6676;45.192;5.722;2022-10-03T11:23:59;1.80;;;1.70;;
13222;SDS011;6676;45.192;5.722;2022-10-03T11:37:55;2.10;;;1.90;;
13222;SDS011;6676;45.192;5.722;2022-10-03T11:40:54;2.87;;;1.85;;
13222;SDS011;6676;45.192;5.722;2022-10-03T11:43:56;3.17;;;2.47;;
13222;SDS011;6676;45.192;5.722;2022-10-03T11:46:59;3.83;;;2.10;;
13222;SDS011;6676;45.192;5.722;2022-10-03T11:50:02;2.62;;;2.08;;
13222;SDS011;6676;45.192;5.722;2022-10-03T11:53:32;2.15;;;1.90;;
13222;SDS011;6676;45.192;5.722;2022-10-03T11:56:34;2.45;;;1.80;;
13222;SDS011;6676;45.192;5.722;2022-10-03T11:59:42;2.05;;;1.72;;
13222;SDS011;6676;45.192;5.722;2022-10-03T12:02:52;2.00;;;1.80;;
13222;SDS011;6676;45.192;5.722;2022-10-03T12:05:49;3.25;;;2.00;;
13222;SDS011;6676;45.192;5.722;2022-10-03T12:08:49;3.50;;;1.82;;
13222;SDS011;6676;45.192;5.722;2022-10-03T12:11:45;3.72;;;2.60;;
13222;SDS011;6676;45.192;5.722;2022-10-03T12:14:42;2.87;;;2.35;;
13222;SDS011;6676;45.192;5.722;2022-10-03T12:17:36;3.50;;;2.20;;
13222;SDS011;6676;45.192;5.722;2022-10-03T12:20:31;3.33;;;2.15;;
13222;SDS011;6676;45.192;5.722;2022-10-03T12:23:29;4.37;;;2.15;;
13222;SDS011;6676;45.192;5.722;2022-10-03T12:26:14;2.72;;;2.17;;
13222;SDS011;6676;45.192;5.722;2022-10-03T12:29:10;2.62;;;2.10;;
13222;SDS011;6676;45.192;5.722;2022-10-03T12:32:11;2.83;;;2.20;;
13222;SDS011;6676;45.192;5.722;2022-10-03T12:35:14;2.85;;;2.30;;
13222;SDS011;6676;45.192;5.722;2022-10-03T12:38:17;3.08;;;2.02;;
13222;SDS011;6676;45.192;5.722;2022-10-03T12:41:18;2.05;;;1.65;;
13222;SDS011;6676;45.192;5.722;2022-10-03T12:44:18;3.92;;;1.80;;
13222;SDS011;6676;45.192;5.722;2022-10-03T12:47:20;2.12;;;1.55;;
13222;SDS011;6676;45.192;5.722;2022-10-03T12:50:25;2.30;;;1.57;;
13222;SDS011;6676;45.192;5.722;2022-10-03T12:53:23;2.00;;;1.70;;
13222;SDS011;6676;45.192;5.722;2022-10-03T12:56:24;3.02;;;1.70;;
13222;SDS011;6676;45.192;5.722;2022-10-03T12:59:21;3.70;;;1.62;;
13222;SDS011;6676;45.192;5.722;2022-10-03T13:02:21;4.22;;;1.57;;
13222;SDS011;6676;45.192;5.722;2022-10-03T13:05:24;1.80;;;1.55;;
13222;SDS011;6676;45.192;5.722;2022-10-03T13:08:46;3.17;;;1.80;;
13222;SDS011;6676;45.192;5.722;2022-10-03T13:11:51;2.02;;;1.35;;
13222;SDS011;6676;45.192;5.722;2022-10-03T13:18:32;1.90;;;1.32;;
13222;SDS011;6676;45.192;5.722;2022-10-03T13:21:55;2.17;;;1.77;;
13222;SDS011;6676;45.192;5.722;2022-10-03T13:24:56;4.20;;;1.77;;
13222;SDS011;6676;45.192;5.722;2022-10-03T13:27:51;2.65;;;1.50;;
13222;SDS011;6676;45.192;5.722;2022-10-03T13:30:46;1.77;;;1.60;;
13222;SDS011;6676;45.192;5.722;2022-10-03T13:33:41;3.98;;;1.65;;
13222;SDS011;6676;45.192;5.722;2022-10-03T13:36:36;4.42;;;1.55;;
13222;SDS011;6676;45.192;5.722;2022-10-03T13:39:32;3.52;;;1.10;;
13222;SDS011;6676;45.192;5.722;2022-10-03T13:42:30;3.25;;;1.15;;
13222;SDS011;6676;45.192;5.722;2022-10-03T13:45:23;3.12;;;1.60;;
13222;SDS011;6676;45.192;5.722;2022-10-03T13:48:17;2.10;;;1.15;;
13222;SDS011;6676;45.192;5.722;2022-10-03T13:51:36;2.83;;;1.37;;
13222;SDS011;6676;45.192;5.722;2022-10-03T13:54:45;2.92;;;1.00;;
13222;SDS011;6676;45.192;5.722;2022-10-03T13:57:41;1.52;;;0.90;;
13222;SDS011;6676;45.192;5.722;2022-10-03T14:00:41;3.67;;;1.30;;
13222;SDS011;6676;45.192;5.722;2022-10-03T14:03:48;2.58;;;1.20;;
13222;SDS011;6676;45.192;5.722;2022-10-03T14:07:05;1.20;;;1.10;;
13222;SDS011;6676;45.192;5.722;2022-10-03T14:10:09;2.00;;;1.15;;
13222;SDS011;6676;45.192;5.722;2022-10-03T14:13:11;1.82;;;0.93;;
13222;SDS011;6676;45.192;5.722;2022-10-03T14:16:09;0.80;;;0.80;;
13222;SDS011;6676;45.192;5.722;2022-10-03T14:19:06;1.87;;;1.02;;
13222;SDS011;6676;45.192;5.722;2022-10-03T14:22:06;2.12;;;1.07;;
13222;SDS011;6676;45.192;5.722;2022-10-03T14:25:07;1.00;;;0.90;;
13222;SDS011;6676;45.192;5.722;2022-10-03T14:28:13;2.40;;;1.17;;
13222;SDS011;6676;45.192;5.722;2022-10-03T14:31:09;4.33;;;1.25;;
13222;SDS011;6676;45.192;5.722;2022-10-03T14:34:04;1.15;;;0.95;;
13222;SDS011;6676;45.192;5.722;2022-10-03T14:36:59;2.02;;;1.12;;
13222;SDS011;6676;45.192;5.722;2022-10-03T14:40:00;1.70;;;1.00;;
13222;SDS011;6676;45.192;5.722;2022-10-03T14:42:57;1.45;;;1.00;;
13222;SDS011;6676;45.192;5.722;2022-10-03T14:46:06;2.58;;;1.12;;
13222;SDS011;6676;45.192;5.722;2022-10-03T14:49:01;1.67;;;1.15;;
13222;SDS011;6676;45.192;5.722;2022-10-03T14:51:59;1.80;;;0.95;;
13222;SDS011;6676;45.192;5.722;2022-10-03T14:54:54;3.22;;;1.07;;
13222;SDS011;6676;45.192;5.722;2022-10-03T14:57:48;2.22;;;1.27;;
13222;SDS011;6676;45.192;5.722;2022-10-03T15:00:44;5.85;;;1.37;;
13222;SDS011;6676;45.192;5.722;2022-10-03T15:03:38;2.05;;;1.00;;
13222;SDS011;6676;45.192;5.722;2022-10-03T15:06:37;2.02;;;1.02;;
13222;SDS011;6676;45.192;5.722;2022-10-03T15:09:44;2.45;;;1.17;;
13222;SDS011;6676;45.192;5.722;2022-10-03T15:12:37;1.92;;;1.10;;
13222;SDS011;6676;45.192;5.722;2022-10-03T15:15:32;1.77;;;1.20;;
13222;SDS011;6676;45.192;5.722;2022-10-03T15:18:22;2.12;;;1.17;;
13222;SDS011;6676;45.192;5.722;2022-10-03T15:21:14;1.45;;;1.15;;
13222;SDS011;6676;45.192;5.722;2022-10-03T15:24:07;1.47;;;1.05;;
13222;SDS011;6676;45.192;5.722;2022-10-03T15:27:01;2.12;;;1.07;;
13222;SDS011;6676;45.192;5.722;2022-10-03T15:29:56;1.47;;;1.27;;
13222;SDS011;6676;45.192;5.722;2022-10-03T15:32:50;1.25;;;0.95;;
13222;SDS011;6676;45.192;5.722;2022-10-03T15:35:44;2.83;;;1.22;;
13222;SDS011;6676;45.192;5.722;2022-10-03T15:38:38;1.17;;;1.00;;
13222;SDS011;6676;45.192;5.722;2022-10-03T15:41:32;2.50;;;1.17;;
13222;SDS011;6676;45.192;5.722;2022-10-03T15:44:27;1.25;;;1.00;;
13222;SDS011;6676;45.192;5.722;2022-10-03T15:47:22;1.10;;;0.98;;
13222;SDS011;6676;45.192;5.722;2022-10-03T15:50:17;1.17;;;1.07;;
13222;SDS011;6676;45.192;5.722;2022-10-03T15:53:14;3.15;;;1.20;;
13222;SDS011;6676;45.192;5.722;2022-10-03T15:56:09;1.83;;;1.30;;
13222;SDS011;6676;45.192;5.722;2022-10-03T15:59:05;1.10;;;0.90;;
13222;SDS011;6676;45.192;5.722;2022-10-03T16:01:59;1.67;;;0.95;;
13222;SDS011;6676;45.192;5.722;2022-10-03T16:04:54;1.00;;;1.00;;
13222;SDS011;6676;45.192;5.722;2022-10-03T16:07:50;1.15;;;0.95;;
13222;SDS011;6676;45.192;5.722;2022-10-03T16:10:47;4.78;;;1.25;;
13222;SDS011;6676;45.192;5.722;2022-10-03T16:13:41;2.30;;;1.05;;
13222;SDS011;6676;45.192;5.722;2022-10-03T16:16:36;1.92;;;0.78;;
13222;SDS011;6676;45.192;5.722;2022-10-03T16:19:31;2.35;;;1.00;;
13222;SDS011;6676;45.192;5.722;2022-10-03T16:22:29;1.07;;;0.80;;
13222;SDS011;6676;45.192;5.722;2022-10-03T16:25:23;3.55;;;1.00;;
13222;SDS011;6676;45.192;5.722;2022-10-03T16:28:18;2.40;;;1.07;;
13222;SDS011;6676;45.192;5.722;2022-10-03T16:31:14;2.60;;;1.00;;
13222;SDS011;6676;45.192;5.722;2022-10-03T16:34:11;1.40;;;0.85;;
13222;SDS011;6676;45.192;5.722;2022-10-03T16:37:04;2.55;;;1.00;;
13222;SDS011;6676;45.192;5.722;2022-10-03T16:40:02;1.75;;;0.80;;
13222;SDS011;6676;45.192;5.722;2022-10-03T16:42:57;2.55;;;0.90;;
13222;SDS011;6676;45.192;5.722;2022-10-03T16:45:52;1.45;;;0.98;;
13222;SDS011;6676;45.192;5.722;2022-10-03T16:48:45;3.27;;;1.10;;
13222;SDS011;6676;45.192;5.722;2022-10-03T16:51:56;1.32;;;0.80;;
13222;SDS011;6676;45.192;5.722;2022-10-03T16:54:56;2.30;;;0.85;;
13222;SDS011;6676;45.192;5.722;2022-10-03T16:57:51;1.72;;;0.90;;
13222;SDS011;6676;45.192;5.722;2022-10-03T17:00:43;1.40;;;1.00;;
13222;SDS011;6676;45.192;5.722;2022-10-03T17:03:43;1.47;;;1.22;;
13222;SDS011;6676;45.192;5.722;2022-10-03T17:06:36;0.98;;;0.80;;
13222;SDS011;6676;45.192;5.722;2022-10-03T17:09:30;1.62;;;0.80;;
13222;SDS011;6676;45.192;5.722;2022-10-03T17:12:24;2.87;;;0.93;;
13222;SDS011;6676;45.192;5.722;2022-10-03T17:15:19;1.87;;;0.85;;
13222;SDS011;6676;45.192;5.722;2022-10-03T17:18:15;1.32;;;1.02;;
13222;SDS011;6676;45.192;5.722;2022-10-03T17:21:17;1.45;;;0.80;;
13222;SDS011;6676;45.192;5.722;2022-10-03T17:24:14;2.47;;;1.12;;
13222;SDS011;6676;45.192;5.722;2022-10-03T17:27:09;2.35;;;1.20;;
13222;SDS011;6676;45.192;5.722;2022-10-03T17:30:23;1.52;;;0.90;;
13222;SDS011;6676;45.192;5.722;2022-10-03T17:33:05;1.70;;;1.00;;
13222;SDS011;6676;45.192;5.722;2022-10-03T17:36:01;1.70;;;0.95;;
13222;SDS011;6676;45.192;5.722;2022-10-03T17:38:57;3.90;;;1.00;;
13222;SDS011;6676;45.192;5.722;2022-10-03T17:41:51;2.58;;;0.82;;
13222;SDS011;6676;45.192;5.722;2022-10-03T17:44:49;0.80;;;0.80;;
13222;SDS011;6676;45.192;5.722;2022-10-03T17:47:49;0.90;;;0.65;;
13222;SDS011;6676;45.192;5.722;2022-10-03T17:50:49;1.70;;;0.62;;
13222;SDS011;6676;45.192;5.722;2022-10-03T17:53:46;0.78;;;0.78;;
13222;SDS011;6676;45.192;5.722;2022-10-03T17:56:36;1.02;;;0.82;;
13222;SDS011;6676;45.192;5.722;2022-10-03T17:59:31;2.58;;;0.90;;
13222;SDS011;6676;45.192;5.722;2022-10-03T18:02:33;1.45;;;1.00;;
13222;SDS011;6676;45.192;5.722;2022-10-03T18:05:28;1.40;;;0.80;;
13222;SDS011;6676;45.192;5.722;2022-10-03T18:08:22;0.93;;;0.80;;
13222;SDS011;6676;45.192;5.722;2022-10-03T18:11:17;1.15;;;0.75;;
13222;SDS011;6676;45.192;5.722;2022-10-03T18:14:11;1.10;;;1.00;;
13222;SDS011;6676;45.192;5.722;2022-10-03T18:17:06;2.17;;;0.95;;
13222;SDS011;6676;45.192;5.722;2022-10-03T18:20:07;2.33;;;0.95;;
13222;SDS011;6676;45.192;5.722;2022-10-03T18:23:03;2.45;;;0.90;;
13222;SDS011;6676;45.192;5.722;2022-10-03T18:28:46;1.95;;;0.72;;
13222;SDS011;6676;45.192;5.722;2022-10-03T18:31:40;1.20;;;0.85;;
13222;SDS011;6676;45.192;5.722;2022-10-03T18:34:35;1.15;;;0.80;;
13222;SDS011;6676;45.192;5.722;2022-10-03T18:40:59;1.22;;;0.90;;
13222;SDS011;6676;45.192;5.722;2022-10-03T18:43:54;0.90;;;0.70;;
13222;SDS011;6676;45.192;5.722;2022-10-03T18:46:49;1.40;;;0.93;;
13222;SDS011;6676;45.192;5.722;2022-10-03T18:49:45;1.40;;;0.88;;
13222;SDS011;6676;45.192;5.722;2022-10-03T18:52:39;0.85;;;0.78;;
13222;SDS011;6676;45.192;5.722;2022-10-03T18:55:33;3.17;;;1.00;;
13222;SDS011;6676;45.192;5.722;2022-10-03T18:58:28;0.80;;;0.80;;
13222;SDS011;6676;45.192;5.722;2022-10-03T19:01:23;1.07;;;0.80;;
13222;SDS011;6676;45.192;5.722;2022-10-03T19:04:19;1.45;;;0.70;;
13222;SDS011;6676;45.192;5.722;2022-10-03T19:10:08;1.55;;;1.10;;
13222;SDS011;6676;45.192;5.722;2022-10-03T19:13:04;1.47;;;0.95;;
13222;SDS011;6676;45.192;5.722;2022-10-03T19:16:12;1.12;;;1.00;;
13222;SDS011;6676;45.192;5.722;2022-10-03T19:19:19;1.40;;;1.00;;
13222;SDS011;6676;45.192;5.722;2022-10-03T19:22:12;3.30;;;0.80;;
13222;SDS011;6676;45.192;5.722;2022-10-03T19:25:06;1.45;;;0.90;;
13222;SDS011;6676;45.192;5.722;2022-10-03T19:28:03;1.40;;;1.15;;
13222;SDS011;6676;45.192;5.722;2022-10-03T19:30:57;1.67;;;1.12;;
13222;SDS011;6676;45.192;5.722;2022-10-03T19:33:48;1.42;;;0.90;;
13222;SDS011;6676;45.192;5.722;2022-10-03T19:39:21;1.52;;;1.00;;
13222;SDS011;6676;45.192;5.722;2022-10-03T19:42:20;1.10;;;1.00;;
13222;SDS011;6676;45.192;5.722;2022-10-03T19:45:16;1.98;;;1.30;;
13222;SDS011;6676;45.192;5.722;2022-10-03T19:48:09;3.80;;;1.27;;
13222;SDS011;6676;45.192;5.722;2022-10-03T19:51:08;1.22;;;1.10;;
13222;SDS011;6676;45.192;5.722;2022-10-03T19:54:04;2.70;;;1.50;;
13222;SDS011;6676;45.192;5.722;2022-10-03T19:56:49;3.25;;;1.22;;
13222;SDS011;6676;45.192;5.722;2022-10-03T19:59:43;1.77;;;1.40;;
13222;SDS011;6676;45.192;5.722;2022-10-03T20:02:36;1.87;;;1.05;;
13222;SDS011;6676;45.192;5.722;2022-10-03T20:05:30;2.15;;;1.00;;
13222;SDS011;6676;45.192;5.722;2022-10-03T20:08:23;5.53;;;1.47;;
13222;SDS011;6676;45.192;5.722;2022-10-03T20:11:20;3.87;;;1.07;;
13222;SDS011;6676;45.192;5.722;2022-10-03T20:14:18;1.25;;;1.12;;
13222;SDS011;6676;45.192;5.722;2022-10-03T20:17:13;2.25;;;1.10;;
13222;SDS011;6676;45.192;5.722;2022-10-03T20:20:07;1.47;;;1.00;;
13222;SDS011;6676;45.192;5.722;2022-10-03T20:22:50;2.55;;;1.15;;
13222;SDS011;6676;45.192;5.722;2022-10-03T20:25:45;1.92;;;1.52;;
13222;SDS011;6676;45.192;5.722;2022-10-03T20:28:45;2.70;;;1.70;;
13222;SDS011;6676;45.192;5.722;2022-10-03T20:31:44;5.03;;;1.35;;
13222;SDS011;6676;45.192;5.722;2022-10-03T20:34:36;1.95;;;1.30;;
13222;SDS011;6676;45.192;5.722;2022-10-03T20:37:37;2.45;;;1.20;;
13222;SDS011;6676;45.192;5.722;2022-10-03T20:40:32;2.20;;;1.40;;
13222;SDS011;6676;45.192;5.722;2022-10-03T20:43:31;3.62;;;1.50;;
13222;SDS011;6676;45.192;5.722;2022-10-03T20:46:31;4.08;;;1.30;;
13222;SDS011;6676;45.192;5.722;2022-10-03T20:49:28;1.80;;;1.50;;
13222;SDS011;6676;45.192;5.722;2022-10-03T20:52:25;2.95;;;1.40;;
13222;SDS011;6676;45.192;5.722;2022-10-03T21:08:31;2.17;;;1.35;;
13222;SDS011;6676;45.192;5.722;2022-10-03T21:11:26;3.70;;;1.72;;
13222;SDS011;6676;45.192;5.722;2022-10-03T21:14:22;5.47;;;1.92;;
13222;SDS011;6676;45.192;5.722;2022-10-03T21:17:16;4.05;;;1.70;;
13222;SDS011;6676;45.192;5.722;2022-10-03T21:23:13;4.22;;;1.80;;
13222;SDS011;6676;45.192;5.722;2022-10-03T21:26:07;3.20;;;1.70;;
13222;SDS011;6676;45.192;5.722;2022-10-03T21:29:14;4.53;;;1.98;;
13222;SDS011;6676;45.192;5.722;2022-10-03T21:32:18;5.62;;;2.00;;
13222;SDS011;6676;45.192;5.722;2022-10-03T21:35:20;4.28;;;1.90;;
13222;SDS011;6676;45.192;5.722;2022-10-03T21:38:28;3.10;;;1.98;;
13222;SDS011;6676;45.192;5.722;2022-10-03T21:41:28;4.53;;;2.42;;
13222;SDS011;6676;45.192;5.722;2022-10-03T21:44:41;5.75;;;1.87;;
13222;SDS011;6676;45.192;5.722;2022-10-03T21:47:58;4.55;;;1.90;;
13222;SDS011;6676;45.192;5.722;2022-10-03T21:53:44;6.72;;;2.42;;
13222;SDS011;6676;45.192;5.722;2022-10-03T21:56:50;7.70;;;2.22;;
13222;SDS011;6676;45.192;5.722;2022-10-03T21:59:51;3.08;;;2.00;;
13222;SDS011;6676;45.192;5.722;2022-10-03T22:02:56;6.55;;;2.25;;
13222;SDS011;6676;45.192;5.722;2022-10-03T22:05:57;5.83;;;2.60;;
13222;SDS011;6676;45.192;5.722;2022-10-03T22:08:50;10.00;;;2.42;;
13222;SDS011;6676;45.192;5.722;2022-10-03T22:11:45;13.05;;;3.02;;
13222;SDS011;6676;45.192;5.722;2022-10-03T22:14:41;6.87;;;2.60;;
13222;SDS011;6676;45.192;5.722;2022-10-03T22:17:38;9.65;;;2.90;;
13222;SDS011;6676;45.192;5.722;2022-10-03T22:20:32;8.83;;;2.65;;
13222;SDS011;6676;45.192;5.722;2022-10-03T22:23:26;7.25;;;2.58;;
13222;SDS011;6676;45.192;5.722;2022-10-03T22:26:22;6.65;;;2.30;;
13222;SDS011;6676;45.192;5.722;2022-10-03T22:29:18;4.33;;;2.60;;
13222;SDS011;6676;45.192;5.722;2022-10-03T22:32:12;6.12;;;2.47;;
13222;SDS011;6676;45.192;5.722;2022-10-03T22:35:19;6.33;;;2.50;;
13222;SDS011;6676;45.192;5.722;2022-10-03T22:38:16;3.83;;;2.77;;
13222;SDS011;6676;45.192;5.722;2022-10-03T22:41:10;6.42;;;2.65;;
13222;SDS011;6676;45.192;5.722;2022-10-03T22:44:06;5.15;;;2.58;;
13222;SDS011;6676;45.192;5.722;2022-10-03T22:47:09;4.55;;;2.70;;
13222;SDS011;6676;45.192;5.722;2022-10-03T22:49:55;4.17;;;2.65;;
13222;SDS011;6676;45.192;5.722;2022-10-03T22:55:29;5.15;;;2.50;;
13222;SDS011;6676;45.192;5.722;2022-10-03T22:58:20;3.70;;;2.92;;